Sedov — UELO — position and weather

sailwx.info

Track history (hours):
 
Tides and Currents Weather Stations Pressure Air Temp Water Temp Dewpoint Dewpoint Depression Visibility Wind Speed Wind Dir Waves Ship Positions

Sedov (Russia)

Last reported at 2017-Jul-24 18:24 UTC. Time now 2017-Jul-28 06:33 UTC.
Position N 59°09' E 020°06'.

Length 118 m; draft 6.5 m.

Type: Pleasure craft. MMSI: 273510000.

Date/timePositionNaut miles runAvg speedWind from/ knotsBaromVisibWave heightAir tempDewpointWater temp
2017-Jul-24 18:24N 59°09' E 020°06'3 6.7
2017-Jul-24 17:55N 59°11' E 020°11'3 6.4
2017-Jul-24 17:27N 59°12' E 020°17'4 6.9
2017-Jul-24 16:56N 59°14' E 020°23'3 7.5
2017-Jul-24 16:30N 59°16' E 020°28'4 7.6
2017-Jul-24 16:00N 59°18' E 020°34'20 6.8
2017-Jul-24 13:00N 59°31' E 021°03'2 4.9
2017-Jul-24 12:30N 59°33' E 021°07'2 5.0
2017-Jul-24 12:01N 59°35' E 021°11'2 4.7
2017-Jul-24 11:30N 59°37' E 021°14'2 4.0
2017-Jul-24 11:00N 59°38' E 021°16'1 2.3
2017-Jul-24 10:31N 59°38' E 021°19'4 7.2
2017-Jul-24 10:00N 59°37' E 021°12'3 6.5
2017-Jul-24 09:31N 59°35' E 021°06'0 0.5
2017-Jul-24 09:00N 59°35' E 021°07'0 0.4
2017-Jul-24 08:30N 59°35' E 021°07'0 0.6
2017-Jul-24 08:00N 59°36' E 021°07'0 0.4
2017-Jul-24 07:30N 59°36' E 021°07'0 0.5
2017-Jul-24 07:01N 59°36' E 021°07'0 0.4
2017-Jul-24 06:30N 59°36' E 021°07'0 0.3
2017-Jul-24 06:01N 59°37' E 021°07'0 0.5
2017-Jul-24 05:31N 59°37' E 021°07'0 0.4
2017-Jul-24 05:00N 59°37' E 021°07'0 0.4
2017-Jul-24 04:31N 59°37' E 021°07'0 0.4
2017-Jul-24 04:01N 59°37' E 021°07'0 0.4
2017-Jul-24 03:31N 59°38' E 021°07'0 0.4
2017-Jul-24 03:00N 59°38' E 021°08'0 0.4
2017-Jul-24 02:31N 59°38' E 021°08'0 0.5
2017-Jul-24 02:00N 59°38' E 021°07'0 0.5
2017-Jul-24 01:30N 59°39' E 021°07'0 0.5
2017-Jul-24 01:00N 59°39' E 021°07'0 0.5
2017-Jul-24 00:30N 59°39' E 021°07'0 0.4
2017-Jul-23 23:59N 59°39' E 021°07'0 0.4
2017-Jul-23 23:30N 59°39' E 021°07'0 0.4
2017-Jul-23 23:00N 59°40' E 021°07'0 0.4
2017-Jul-23 22:30N 59°40' E 021°06'1 1.6
2017-Jul-23 22:00N 59°40' E 021°08'4 7.5
2017-Jul-23 21:30N 59°41' E 021°15'4 8.2
2017-Jul-23 21:00N 59°44' E 021°21'5 8.9
2017-Jul-23 20:29N 59°48' E 021°21'4 7.7
2017-Jul-23 20:00N 59°51' E 021°25'4 8.4
2017-Jul-23 19:30N 59°54' E 021°32'4 8.2
2017-Jul-23 19:00N 59°56' E 021°39'4 8.5
2017-Jul-23 18:29N 60°00' E 021°42'4 8.7
2017-Jul-23 18:00N 60°04' E 021°41'4 8.7
2017-Jul-23 17:30N 60°09' E 021°41'4 8.9
2017-Jul-23 17:00N 60°13' E 021°43'4 7.7
2017-Jul-23 16:30N 60°14' E 021°50'4 7.1
2017-Jul-23 15:59N 60°16' E 021°56'4 7.4
2017-Jul-23 15:30N 60°18' E 022°02'4 7.4
2017-Jul-23 15:00N 60°21' E 022°06'3 5.8
2017-Jul-23 14:30N 60°24' E 022°07'2 3.6
2017-Jul-23 14:01N 60°25' E 022°10'2 3.7
2017-Jul-23 13:28N 60°26' E 022°14'0 0.6
2017-Jul-23 12:59N 60°26' E 022°14'0 0.0
2017-Jul-23 12:26N 60°26' E 022°14'0 0.0
2017-Jul-23 11:59N 60°26' E 022°14'0 0.0
2017-Jul-23 11:29N 60°26' E 022°14'0 0.0
2017-Jul-23 10:59N 60°26' E 022°14'0 0.0
2017-Jul-23 10:29N 60°26' E 022°14'0 0.0
2017-Jul-23 09:59N 60°26' E 022°14'0 0.0
2017-Jul-23 09:26N 60°26' E 022°14'0 0.0
2017-Jul-23 08:59N 60°26' E 022°14'0 0.0
2017-Jul-23 08:29N 60°26' E 022°14'0 0.0
2017-Jul-23 07:59N 60°26' E 022°14'0 0.0
2017-Jul-23 07:29N 60°26' E 022°14'0 0.0
2017-Jul-23 06:54N 60°26' E 022°14'0 0.0
2017-Jul-23 06:29N 60°26' E 022°14'0 0.0
2017-Jul-23 05:59N 60°26' E 022°14'0 0.0
2017-Jul-23 05:29N 60°26' E 022°14'0 0.0
2017-Jul-23 04:59N 60°26' E 022°14'0 0.0
2017-Jul-23 04:29N 60°26' E 022°14'0 0.0
2017-Jul-23 03:59N 60°26' E 022°14'0 0.0
2017-Jul-23 03:29N 60°26' E 022°14'0 0.0
2017-Jul-23 02:59N 60°26' E 022°14'0 0.0
2017-Jul-23 02:29N 60°26' E 022°14'0 0.0
2017-Jul-23 01:59N 60°26' E 022°14'0 0.0
2017-Jul-23 01:29N 60°26' E 022°14'0 0.0
2017-Jul-23 00:59N 60°26' E 022°14'0 0.0
2017-Jul-23 00:29N 60°26' E 022°14'0 0.0
2017-Jul-22 23:59N 60°26' E 022°14'0 0.0
2017-Jul-22 23:29N 60°26' E 022°14'0 0.0
2017-Jul-22 22:59N 60°26' E 022°14'0 0.0
2017-Jul-22 22:26N 60°26' E 022°14'0 0.0
2017-Jul-22 21:59N 60°26' E 022°14'0 0.0
2017-Jul-22 21:29N 60°26' E 022°14'0 0.0
2017-Jul-22 20:58N 60°26' E 022°14'0 0.0
2017-Jul-22 20:28N 60°26' E 022°14'0 0.0
2017-Jul-22 20:00N 60°26' E 022°14'0 0.0
2017-Jul-22 19:30N 60°26' E 022°14'0 0.0
2017-Jul-22 18:59N 60°26' E 022°14'0 0.0
2017-Jul-22 18:29N 60°26' E 022°14'0 0.0
2017-Jul-22 17:59N 60°26' E 022°14'0 0.0
2017-Jul-22 17:29N 60°26' E 022°14'0 0.0
2017-Jul-22 16:59N 60°26' E 022°14'0 0.0
2017-Jul-22 16:29N 60°26' E 022°14'0 0.0
2017-Jul-22 15:59N 60°26' E 022°14'0 0.0
2017-Jul-22 15:29N 60°26' E 022°14'0 0.0
2017-Jul-22 14:59N 60°26' E 022°14'0 0.0
2017-Jul-22 13:59N 60°26' E 022°14'0 0.0
2017-Jul-22 13:29N 60°26' E 022°14'0 0.0
2017-Jul-22 12:59N 60°26' E 022°14'0 0.0
2017-Jul-22 12:29N 60°26' E 022°14'0 0.0
2017-Jul-22 11:59N 60°26' E 022°14'0 0.0
2017-Jul-22 11:29N 60°26' E 022°14'0 0.0
2017-Jul-22 10:59N 60°26' E 022°14'0 0.0
2017-Jul-22 10:29N 60°26' E 022°14'0 0.0
2017-Jul-22 09:59N 60°26' E 022°14'0 0.0
2017-Jul-22 09:29N 60°26' E 022°14'0 0.0
2017-Jul-22 08:59N 60°26' E 022°14'0 0.0
2017-Jul-22 08:29N 60°26' E 022°14'0 0.0
2017-Jul-22 07:59N 60°26' E 022°14'0 0.0
2017-Jul-22 07:29N 60°26' E 022°14'0 0.0
2017-Jul-22 06:59N 60°26' E 022°14'0 0.0
2017-Jul-22 06:29N 60°26' E 022°14'0 0.0
2017-Jul-22 05:59N 60°26' E 022°14'0 0.0
2017-Jul-22 05:29N 60°26' E 022°14'0 0.0
2017-Jul-22 04:56N 60°26' E 022°14'0 0.0
2017-Jul-22 04:29N 60°26' E 022°14'0 0.0
2017-Jul-22 03:59N 60°26' E 022°14'0 0.0
2017-Jul-22 03:29N 60°26' E 022°14'0 0.0
2017-Jul-22 02:59N 60°26' E 022°14'0 0.0
2017-Jul-22 02:29N 60°26' E 022°14'0 0.0
2017-Jul-22 01:59N 60°26' E 022°14'0 0.0
2017-Jul-22 01:29N 60°26' E 022°14'0 0.0
2017-Jul-22 00:59N 60°26' E 022°14'0 0.0
2017-Jul-22 00:29N 60°26' E 022°14'0 0.0
2017-Jul-21 23:59N 60°26' E 022°14'0 0.0
2017-Jul-21 23:29N 60°26' E 022°14'0 0.0
2017-Jul-21 22:59N 60°26' E 022°14'0 0.0
2017-Jul-21 22:29N 60°26' E 022°14'0 0.0
2017-Jul-21 21:59N 60°26' E 022°14'0 0.0
2017-Jul-21 21:29N 60°26' E 022°14'0 0.0
2017-Jul-21 20:59N 60°26' E 022°14'0 0.0
2017-Jul-21 20:29N 60°26' E 022°14'0 0.0
2017-Jul-21 19:56N 60°26' E 022°14'0 0.0
2017-Jul-21 19:29N 60°26' E 022°14'0 0.0
2017-Jul-21 18:59N 60°26' E 022°14'0 0.0
2017-Jul-21 18:29N 60°26' E 022°14'0 0.0
2017-Jul-21 17:56N 60°26' E 022°14'0 0.0
2017-Jul-21 17:29N 60°26' E 022°14'0 0.0
2017-Jul-21 16:59N 60°26' E 022°14'0 0.0
2017-Jul-21 16:29N 60°26' E 022°14'0 0.0
2017-Jul-21 15:59N 60°26' E 022°14'0 0.0
2017-Jul-21 15:29N 60°26' E 022°14'0 0.0
2017-Jul-21 14:59N 60°26' E 022°14'0 0.0
2017-Jul-21 14:29N 60°26' E 022°14'0 0.0
2017-Jul-21 13:59N 60°26' E 022°14'0 0.0
2017-Jul-21 13:29N 60°26' E 022°14'0 0.0
2017-Jul-21 12:59N 60°26' E 022°14'0 0.0
2017-Jul-21 12:29N 60°26' E 022°14'0 0.0
2017-Jul-21 11:59N 60°26' E 022°14'0 0.0
2017-Jul-21 11:29N 60°26' E 022°14'0 0.0
2017-Jul-21 10:59N 60°26' E 022°14'0 0.0
2017-Jul-21 10:29N 60°26' E 022°14'0 0.0
2017-Jul-21 09:59N 60°26' E 022°14'0 0.0
2017-Jul-21 09:29N 60°26' E 022°14'0 0.0
2017-Jul-21 08:59N 60°26' E 022°14'0 0.0
2017-Jul-21 08:29N 60°26' E 022°14'0 0.0
2017-Jul-21 07:59N 60°26' E 022°14'0 0.0
2017-Jul-21 07:29N 60°26' E 022°14'0 0.0
2017-Jul-21 06:59N 60°26' E 022°14'0 0.0
2017-Jul-21 06:29N 60°26' E 022°14'0 0.0
2017-Jul-21 05:59N 60°26' E 022°14'0 0.0
2017-Jul-21 05:29N 60°26' E 022°14'0 0.0
2017-Jul-21 04:59N 60°26' E 022°14'0 0.0
2017-Jul-21 04:29N 60°26' E 022°14'0 0.0
2017-Jul-21 03:59N 60°26' E 022°14'0 0.0
2017-Jul-21 03:29N 60°26' E 022°14'0 0.0
2017-Jul-21 02:59N 60°26' E 022°14'0 0.0
2017-Jul-21 02:29N 60°26' E 022°14'0 0.0
2017-Jul-21 01:59N 60°26' E 022°14'0 0.0
2017-Jul-21 01:29N 60°26' E 022°14'0 0.0
2017-Jul-21 00:59N 60°26' E 022°14'0 0.0
2017-Jul-21 00:29N 60°26' E 022°14'0 0.0
2017-Jul-20 23:59N 60°26' E 022°14'0 0.0
2017-Jul-20 23:29N 60°26' E 022°14'0 0.0
2017-Jul-20 22:59N 60°26' E 022°14'0 0.0
2017-Jul-20 22:29N 60°26' E 022°14'0 0.0
2017-Jul-20 21:59N 60°26' E 022°14'0 0.0
2017-Jul-20 21:29N 60°26' E 022°14'0 0.0
2017-Jul-20 20:59N 60°26' E 022°14'0 0.0
2017-Jul-20 20:23N 60°26' E 022°14'0 0.0
2017-Jul-20 19:55N 60°26' E 022°14'0 0.0
2017-Jul-20 19:29N 60°26' E 022°14'0 0.0
2017-Jul-20 18:59N 60°26' E 022°14'0 0.0
2017-Jul-20 18:29N 60°26' E 022°14'0 0.0
2017-Jul-20 17:59N 60°26' E 022°14'0 0.0
2017-Jul-20 17:29N 60°26' E 022°14'0 0.0
2017-Jul-20 16:59N 60°26' E 022°14'0 0.0
2017-Jul-20 16:29N 60°26' E 022°14'0 0.0
2017-Jul-20 15:59N 60°26' E 022°14'0 0.0
2017-Jul-20 15:29N 60°26' E 022°14'0 0.0
2017-Jul-20 14:59N 60°26' E 022°14'0 0.0
2017-Jul-20 13:56N 60°26' E 022°14'0 0.0
2017-Jul-20 13:29N 60°26' E 022°14'0 0.0
2017-Jul-20 13:00N 60°26' E 022°14'0 0.2
2017-Jul-20 12:30N 60°26' E 022°14'1 1.3
2017-Jul-20 12:00N 60°26' E 022°13'2 3.6
2017-Jul-20 11:30N 60°25' E 022°10'2 4.6
2017-Jul-20 11:00N 60°24' E 022°07'4 8.7
2017-Jul-20 10:31N 60°20' E 022°04'4 7.9
2017-Jul-20 10:01N 60°16' E 021°58'4 8.7
2017-Jul-20 09:30N 60°15' E 021°50'4 8.2
2017-Jul-20 09:00N 60°13' E 021°43'4 7.8
2017-Jul-20 08:30N 60°09' E 021°42'4 7.3
2017-Jul-20 08:00N 60°06' E 021°42'4 8.3
2017-Jul-20 07:30N 60°02' E 021°42'4 8.0
2017-Jul-20 07:00N 59°58' E 021°41'4 8.4
2017-Jul-20 06:30N 59°54' E 021°35'4 8.8
2017-Jul-20 06:00N 59°52' E 021°28'4 8.4
2017-Jul-20 05:29N 59°49' E 021°21'4 7.7
2017-Jul-20 05:00N 59°46' E 021°21'3 6.2
2017-Jul-20 04:30N 59°43' E 021°21'3 5.3
2017-Jul-20 04:00N 59°40' E 021°20'2 4.9
2017-Jul-20 03:30N 59°38' E 021°19'3 5.1
2017-Jul-20 03:00N 59°35' E 021°18'2 4.3
2017-Jul-20 02:30N 59°33' E 021°16'2 4.7
2017-Jul-20 02:01N 59°31' E 021°15'0 0.9
2017-Jul-20 01:30N 59°31' E 021°14'0 0.9
2017-Jul-20 01:00N 59°31' E 021°13'0 0.9
2017-Jul-20 00:30N 59°31' E 021°12'0 0.8
2017-Jul-20 00:00N 59°30' E 021°12'0 0.9
2017-Jul-19 23:30N 59°30' E 021°11'0 0.8
2017-Jul-19 23:00N 59°30' E 021°10'0 0.8
2017-Jul-19 22:30N 59°30' E 021°09'0 0.7
2017-Jul-19 22:00N 59°30' E 021°09'0 0.7
2017-Jul-19 21:30N 59°30' E 021°08'0 0.6
2017-Jul-19 21:00N 59°30' E 021°07'0 0.4
2017-Jul-19 20:30N 59°30' E 021°07'0 0.4
2017-Jul-19 20:01N 59°30' E 021°07'0 0.4
2017-Jul-19 19:30N 59°31' E 021°06'0 0.4
2017-Jul-19 19:00N 59°31' E 021°06'0 0.4
2017-Jul-19 18:30N 59°31' E 021°06'0 0.6
2017-Jul-19 18:00N 59°31' E 021°05'0 0.6
2017-Jul-19 17:30N 59°31' E 021°05'0 0.6
2017-Jul-19 17:00N 59°31' E 021°05'2 3.1
2017-Jul-19 16:30N 59°30' E 021°04'4 7.4
2017-Jul-19 16:00N 59°27' E 021°09'4 8.1
2017-Jul-19 15:30N 59°26' E 021°17'4 8.0
2017-Jul-19 15:00N 59°25' E 021°25'4 7.8
2017-Jul-19 14:30N 59°25' E 021°32'4 7.8
2017-Jul-19 14:00N 59°25' E 021°40'4 7.7
2017-Jul-19 13:30N 59°26' E 021°47'4 7.5
2017-Jul-19 12:59N 59°27' E 021°55'3 7.0
2017-Jul-19 12:30N 59°28' E 022°01'4 7.7
2017-Jul-19 12:00N 59°28' E 022°09'4 7.4
2017-Jul-19 11:29N 59°29' E 022°16'4 7.3
2017-Jul-19 11:00N 59°31' E 022°23'4 7.2
2017-Jul-19 10:31N 59°32' E 022°29'3 6.7
2017-Jul-19 10:00N 59°33' E 022°35'3 6.4
2017-Jul-19 09:30N 59°34' E 022°42'3 6.2
2017-Jul-19 09:00N 59°35' E 022°47'3 6.3
2017-Jul-19 08:30N 59°35' E 022°53'3 6.3
2017-Jul-19 08:00N 59°36' E 022°59'3 6.6
2017-Jul-19 07:30N 59°37' E 023°06'3 6.6
2017-Jul-19 07:00N 59°38' E 023°12'3 6.7
2017-Jul-19 06:30N 59°39' E 023°18'3 6.9
2017-Jul-19 06:01N 59°39' E 023°25'4 7.2
2017-Jul-19 05:30N 59°41' E 023°32'4 7.3
2017-Jul-19 05:00N 59°42' E 023°39'4 7.3
2017-Jul-19 04:30N 59°43' E 023°46'4 7.3
2017-Jul-19 04:00N 59°43' E 023°53'3 7.0
2017-Jul-19 03:30N 59°44' E 023°59'4 7.2
2017-Jul-19 03:00N 59°45' E 024°06'4 7.5
2017-Jul-19 02:30N 59°46' E 024°14'4 7.4
2017-Jul-19 02:01N 59°47' E 024°21'4 7.3
2017-Jul-19 01:30N 59°47' E 024°28'3 6.8
2017-Jul-19 01:00N 59°48' E 024°35'3 6.9
2017-Jul-19 00:30N 59°49' E 024°41'4 7.4
2017-Jul-19 00:00N 59°49' E 024°48'4 7.3
2017-Jul-18 23:29N 59°50' E 024°56'4 7.4
2017-Jul-18 23:00N 59°51' E 025°03'4 7.3
2017-Jul-18 22:30N 59°52' E 025°10'3 7.2
2017-Jul-18 22:00N 59°52' E 025°17'4 7.2
2017-Jul-18 21:30N 59°53' E 025°24'3 6.8
2017-Jul-18 21:00N 59°53' E 025°31'3 6.8
2017-Jul-18 20:30N 59°53' E 025°38'3 6.1
2017-Jul-18 20:00N 59°54' E 025°44'3 6.6
2017-Jul-18 19:30N 59°55' E 025°50'3 5.5
2017-Jul-18 19:00N 59°56' E 025°55'3 5.7
2017-Jul-18 18:30N 59°57' E 026°01'3 5.8
2017-Jul-18 18:00N 59°57' E 026°06'3 6.1
2017-Jul-18 17:30N 59°58' E 026°12'3 6.6
2017-Jul-18 17:00N 59°59' E 026°18'3 6.7
2017-Jul-18 16:31N 60°00' E 026°25'4 7.2
2017-Jul-18 16:00N 60°01' E 026°32'3 6.5
2017-Jul-18 15:31N 60°01' E 026°38'4 7.1
2017-Jul-18 15:00N 60°01' E 026°45'8 7.7
2017-Jul-18 13:59N 60°00' E 027°01'3 6.9
2017-Jul-18 13:31N 60°01' E 027°07'4 7.1
2017-Jul-18 13:01N 60°03' E 027°13'4 7.2
2017-Jul-18 12:31N 60°04' E 027°20'4 7.4
2017-Jul-18 11:59N 60°06' E 027°26'4 7.4
2017-Jul-18 11:31N 60°08' E 027°32'3 6.7
2017-Jul-18 11:00N 60°10' E 027°38'2 5.0
2017-Jul-18 10:30N 60°11' E 027°43'2 4.7
2017-Jul-18 10:01N 60°12' E 027°47'2 4.9
2017-Jul-18 09:30N 60°11' E 027°52'2 4.9
2017-Jul-18 09:01N 60°11' E 027°57'3 5.0
2017-Jul-18 08:30N 60°10' E 028°02'2 4.7
2017-Jul-18 08:00N 60°09' E 028°06'2 4.9
2017-Jul-18 07:30N 60°09' E 028°11'3 5.7
2017-Jul-18 07:01N 60°08' E 028°17'3 6.1
2017-Jul-18 06:30N 60°06' E 028°22'3 6.1
2017-Jul-18 06:00N 60°04' E 028°26'3 5.6
2017-Jul-18 05:30N 60°04' E 028°32'3 5.3
2017-Jul-18 05:00N 60°03' E 028°37'3 5.0
2017-Jul-18 04:30N 60°03' E 028°42'2 5.0
2017-Jul-18 04:00N 60°03' E 028°47'2 4.8
2017-Jul-18 03:30N 60°03' E 028°52'2 4.7
2017-Jul-18 03:00N 60°03' E 028°56'2 4.6
2017-Jul-18 02:30N 60°03' E 029°01'2 4.3
2017-Jul-18 02:00N 60°03' E 029°05'2 3.9
2017-Jul-18 01:30N 60°03' E 029°09'10 3.5
2017-Jul-17 22:32N 60°01' E 029°30'0 4.9
2017-Jul-17 22:27N 60°01' E 029°31'2 5.5
2017-Jul-17 22:00N 60°01' E 029°35'3 5.9
2017-Jul-17 21:30N 59°60' E 029°41'3 5.8
2017-Jul-17 20:54N 59°58' E 029°47'2 6.0
2017-Jul-17 20:30N 59°57' E 029°51'10 2.0
2017-Jul-17 15:26N 59°57' E 030°11'4013.0
2017-Jul-17 12:20N 59°49' E 028°53'4087.1
2017-Jul-17 11:52N 59°57' E 030°11'0 0.0
2017-Jul-17 11:30N 59°57' E 030°11'0 0.3
2017-Jul-17 11:00N 59°57' E 030°12'0 0.4
2017-Jul-17 10:30N 59°57' E 030°11'0 0.2
2017-Jul-17 09:59N 59°57' E 030°11'0 0.0
2017-Jul-17 09:28N 59°57' E 030°11'0 0.0
2017-Jul-17 08:55N 59°57' E 030°11'0 0.0
2017-Jul-17 08:29N 59°57' E 030°11'0 0.0
2017-Jul-17 07:59N 59°57' E 030°11'0 0.0
2017-Jul-17 07:28N 59°57' E 030°11'0 0.0
2017-Jul-17 06:59N 59°57' E 030°11'0 0.0
2017-Jul-17 06:30N 59°57' E 030°11'0 0.3
2017-Jul-17 05:59N 59°57' E 030°11'5 6.3
2017-Jul-17 05:11N 59°56' E 030°02'1 3.7
2017-Jul-17 05:00N 59°55' E 030°00'3 6.7
2017-Jul-17 04:30N 59°56' E 029°54'3 6.6
2017-Jul-17 03:59N 59°58' E 029°48'4 6.2
2017-Jul-17 03:22N 59°60' E 029°41'6 6.5
2017-Jul-17 02:28N 60°01' E 029°30'3 6.0
2017-Jul-17 01:59N 60°01' E 029°24'3 5.5
2017-Jul-17 01:30N 60°01' E 029°19'0 0.2
2017-Jul-17 00:38N 60°01' E 029°19'0 0.0
2017-Jul-17 00:08N 60°01' E 029°19'0 0.0
2017-Jul-16 23:20N 60°01' E 029°19'0 0.0
2017-Jul-16 22:56N 60°01' E 029°19'0 0.0
2017-Jul-16 22:29N 60°01' E 029°19'0 0.0
2017-Jul-16 21:59N 60°01' E 029°19'0 0.0
2017-Jul-16 21:29N 60°01' E 029°19'0 0.1
2017-Jul-16 21:00N 60°01' E 029°19'1 2.5
2017-Jul-16 20:30N 60°01' E 029°16'3 5.9
2017-Jul-16 19:59N 60°01' E 029°10'3 6.0
2017-Jul-16 19:29N 60°01' E 029°05'3 6.3
2017-Jul-16 19:00N 60°02' E 028°58'3 6.6
2017-Jul-16 18:31N 60°02' E 028°52'3 6.7
2017-Jul-16 18:00N 60°02' E 028°45'4 6.8
2017-Jul-16 17:29N 60°02' E 028°38'3 6.8
2017-Jul-16 17:00N 60°02' E 028°32'3 6.8
2017-Jul-16 16:30N 60°03' E 028°25'4 7.3
2017-Jul-16 15:59N 60°05' E 028°19'3 6.9
2017-Jul-16 15:30N 60°07' E 028°14'3 6.7
2017-Jul-16 15:00N 60°08' E 028°07'3 6.5
2017-Jul-16 14:30N 60°09' E 028°01'4 7.5
2017-Jul-16 14:00N 60°10' E 027°54'3 6.4
2017-Jul-16 13:30N 60°10' E 027°47'3 6.1
2017-Jul-16 13:00N 60°10' E 027°41'3 6.4
2017-Jul-16 12:30N 60°08' E 027°36'4 7.0
2017-Jul-16 12:00N 60°06' E 027°30'2 4.6
2017-Jul-16 11:30N 60°08' E 027°26'3 6.7
2017-Jul-16 11:01N 60°10' E 027°22'3 6.2
2017-Jul-16 10:30N 60°13' E 027°19'3 5.4
2017-Jul-16 10:00N 60°15' E 027°16'3 6.2
2017-Jul-16 09:30N 60°18' E 027°12'3 6.1
2017-Jul-16 09:01N 60°20' E 027°08'3 6.2
2017-Jul-16 08:30N 60°21' E 027°02'3 6.6
2017-Jul-16 08:01N 60°24' E 026°59'3 5.2
2017-Jul-16 07:30N 60°27' E 026°58'2 3.6
2017-Jul-16 06:59N 60°28' E 026°57'0 0.0
2017-Jul-16 06:29N 60°28' E 026°57'0 0.0
2017-Jul-16 05:59N 60°28' E 026°57'0 0.0
2017-Jul-16 05:29N 60°28' E 026°57'0 0.0
2017-Jul-16 04:59N 60°28' E 026°57'0 0.0
2017-Jul-16 04:29N 60°28' E 026°57'0 0.0
2017-Jul-16 03:59N 60°28' E 026°57'0 0.0
2017-Jul-16 03:29N 60°28' E 026°57'0 0.0
2017-Jul-16 03:00N 60°28' E 026°57'0 0.0
2017-Jul-16 02:29N 60°28' E 026°57'0 0.0
2017-Jul-16 01:59N 60°28' E 026°57'0 0.0
2017-Jul-16 01:29N 60°28' E 026°57'0 0.0
2017-Jul-16 00:59N 60°28' E 026°57'0 0.0
2017-Jul-16 00:30N 60°28' E 026°57'0 0.0
2017-Jul-16 00:00N 60°28' E 026°57'0 0.0
2017-Jul-15 23:30N 60°28' E 026°57'0 0.0
2017-Jul-15 23:00N 60°28' E 026°57'0 0.0
2017-Jul-15 22:29N 60°28' E 026°57'0 0.0
2017-Jul-15 21:59N 60°28' E 026°57'0 0.0
2017-Jul-15 21:30N 60°28' E 026°57'0 0.0
2017-Jul-15 20:59N 60°28' E 026°57'0 0.0
2017-Jul-15 20:29N 60°28' E 026°57'0 0.0
2017-Jul-15 19:59N 60°28' E 026°57'0 0.0
2017-Jul-15 19:30N 60°28' E 026°57'0 0.0
2017-Jul-15 19:00N 60°28' E 026°57'0 0.0
2017-Jul-15 18:29N 60°28' E 026°57'0 0.0
2017-Jul-15 17:59N 60°28' E 026°57'0 0.0
2017-Jul-15 17:29N 60°28' E 026°57'0 0.0
2017-Jul-15 16:59N 60°28' E 026°57'0 0.0
2017-Jul-15 16:29N 60°28' E 026°57'0 0.0
2017-Jul-15 15:59N 60°28' E 026°57'0 0.0
2017-Jul-15 15:29N 60°28' E 026°57'0 0.0
2017-Jul-15 14:59N 60°28' E 026°57'0 0.0
2017-Jul-15 13:59N 60°28' E 026°57'0 0.0
2017-Jul-15 13:29N 60°28' E 026°57'0 0.0
2017-Jul-15 12:59N 60°28' E 026°57'0 0.0
2017-Jul-15 12:29N 60°28' E 026°57'0 0.0
2017-Jul-15 11:59N 60°28' E 026°57'0 0.0
2017-Jul-15 11:29N 60°28' E 026°57'0 0.0
2017-Jul-15 10:59N 60°28' E 026°57'0 0.0
2017-Jul-15 10:29N 60°28' E 026°57'0 0.0
2017-Jul-15 09:59N 60°28' E 026°57'0 0.0
2017-Jul-15 09:29N 60°28' E 026°57'0 0.0
2017-Jul-15 08:59N 60°28' E 026°57'0 0.0
2017-Jul-15 08:29N 60°28' E 026°57'0 0.0
2017-Jul-15 07:59N 60°28' E 026°57'0 0.0
2017-Jul-15 07:29N 60°28' E 026°57'  
Track history (hours):
 
Tides and Currents Weather Stations Pressure Air Temp Water Temp Dewpoint Dewpoint Depression Visibility Wind Speed Wind Dir Waves Ship Positions

Sedov (Russia)

Last reported at 2017-Jul-24 18:24 UTC. Time now 2017-Jul-28 06:33 UTC.
Position N 59°09' E 020°06'.

Length 118 m; draft 6.5 m.

Type: Pleasure craft. MMSI: 273510000.

Date/timePositionNaut miles runAvg speedWind from/ knotsBaromVisibWave heightAir tempDewpointWater temp
2017-Jul-24 18:24N 59°09' E 020°06'3 6.7
2017-Jul-24 17:55N 59°11' E 020°11'3 6.4
2017-Jul-24 17:27N 59°12' E 020°17'4 6.9
2017-Jul-24 16:56N 59°14' E 020°23'3 7.5
2017-Jul-24 16:30N 59°16' E 020°28'4 7.6
2017-Jul-24 16:00N 59°18' E 020°34'20 6.8
2017-Jul-24 13:00N 59°31' E 021°03'2 4.9
2017-Jul-24 12:30N 59°33' E 021°07'2 5.0
2017-Jul-24 12:01N 59°35' E 021°11'2 4.7
2017-Jul-24 11:30N 59°37' E 021°14'2 4.0
2017-Jul-24 11:00N 59°38' E 021°16'1 2.3
2017-Jul-24 10:31N 59°38' E 021°19'4 7.2
2017-Jul-24 10:00N 59°37' E 021°12'3 6.5
2017-Jul-24 09:31N 59°35' E 021°06'0 0.5
2017-Jul-24 09:00N 59°35' E 021°07'0 0.4
2017-Jul-24 08:30N 59°35' E 021°07'0 0.6
2017-Jul-24 08:00N 59°36' E 021°07'0 0.4
2017-Jul-24 07:30N 59°36' E 021°07'0 0.5
2017-Jul-24 07:01N 59°36' E 021°07'0 0.4
2017-Jul-24 06:30N 59°36' E 021°07'0 0.3
2017-Jul-24 06:01N 59°37' E 021°07'0 0.5
2017-Jul-24 05:31N 59°37' E 021°07'0 0.4
2017-Jul-24 05:00N 59°37' E 021°07'0 0.4
2017-Jul-24 04:31N 59°37' E 021°07'0 0.4
2017-Jul-24 04:01N 59°37' E 021°07'0 0.4
2017-Jul-24 03:31N 59°38' E 021°07'0 0.4
2017-Jul-24 03:00N 59°38' E 021°08'0 0.4
2017-Jul-24 02:31N 59°38' E 021°08'0 0.5
2017-Jul-24 02:00N 59°38' E 021°07'0 0.5
2017-Jul-24 01:30N 59°39' E 021°07'0 0.5
2017-Jul-24 01:00N 59°39' E 021°07'0 0.5
2017-Jul-24 00:30N 59°39' E 021°07'0 0.4
2017-Jul-23 23:59N 59°39' E 021°07'0 0.4
2017-Jul-23 23:30N 59°39' E 021°07'0 0.4
2017-Jul-23 23:00N 59°40' E 021°07'0 0.4
2017-Jul-23 22:30N 59°40' E 021°06'1 1.6
2017-Jul-23 22:00N 59°40' E 021°08'4 7.5
2017-Jul-23 21:30N 59°41' E 021°15'4 8.2
2017-Jul-23 21:00N 59°44' E 021°21'5 8.9
2017-Jul-23 20:29N 59°48' E 021°21'4 7.7
2017-Jul-23 20:00N 59°51' E 021°25'4 8.4
2017-Jul-23 19:30N 59°54' E 021°32'4 8.2
2017-Jul-23 19:00N 59°56' E 021°39'4 8.5
2017-Jul-23 18:29N 60°00' E 021°42'4 8.7
2017-Jul-23 18:00N 60°04' E 021°41'4 8.7
2017-Jul-23 17:30N 60°09' E 021°41'4 8.9
2017-Jul-23 17:00N 60°13' E 021°43'4 7.7
2017-Jul-23 16:30N 60°14' E 021°50'4 7.1
2017-Jul-23 15:59N 60°16' E 021°56'4 7.4
2017-Jul-23 15:30N 60°18' E 022°02'4 7.4
2017-Jul-23 15:00N 60°21' E 022°06'3 5.8
2017-Jul-23 14:30N 60°24' E 022°07'2 3.6
2017-Jul-23 14:01N 60°25' E 022°10'2 3.7
2017-Jul-23 13:28N 60°26' E 022°14'0 0.6
2017-Jul-23 12:59N 60°26' E 022°14'0 0.0
2017-Jul-23 12:26N 60°26' E 022°14'0 0.0
2017-Jul-23 11:59N 60°26' E 022°14'0 0.0
2017-Jul-23 11:29N 60°26' E 022°14'0 0.0
2017-Jul-23 10:59N 60°26' E 022°14'0 0.0
2017-Jul-23 10:29N 60°26' E 022°14'0 0.0
2017-Jul-23 09:59N 60°26' E 022°14'0 0.0
2017-Jul-23 09:26N 60°26' E 022°14'0 0.0
2017-Jul-23 08:59N 60°26' E 022°14'0 0.0
2017-Jul-23 08:29N 60°26' E 022°14'0 0.0
2017-Jul-23 07:59N 60°26' E 022°14'0 0.0
2017-Jul-23 07:29N 60°26' E 022°14'0 0.0
2017-Jul-23 06:54N 60°26' E 022°14'0 0.0
2017-Jul-23 06:29N 60°26' E 022°14'0 0.0
2017-Jul-23 05:59N 60°26' E 022°14'0 0.0
2017-Jul-23 05:29N 60°26' E 022°14'0 0.0
2017-Jul-23 04:59N 60°26' E 022°14'0 0.0
2017-Jul-23 04:29N 60°26' E 022°14'0 0.0
2017-Jul-23 03:59N 60°26' E 022°14'0 0.0
2017-Jul-23 03:29N 60°26' E 022°14'0 0.0
2017-Jul-23 02:59N 60°26' E 022°14'0 0.0
2017-Jul-23 02:29N 60°26' E 022°14'0 0.0
2017-Jul-23 01:59N 60°26' E 022°14'0 0.0
2017-Jul-23 01:29N 60°26' E 022°14'0 0.0
2017-Jul-23 00:59N 60°26' E 022°14'0 0.0
2017-Jul-23 00:29N 60°26' E 022°14'0 0.0
2017-Jul-22 23:59N 60°26' E 022°14'0 0.0
2017-Jul-22 23:29N 60°26' E 022°14'0 0.0
2017-Jul-22 22:59N 60°26' E 022°14'0 0.0
2017-Jul-22 22:26N 60°26' E 022°14'0 0.0
2017-Jul-22 21:59N 60°26' E 022°14'0 0.0
2017-Jul-22 21:29N 60°26' E 022°14'0 0.0
2017-Jul-22 20:58N 60°26' E 022°14'0 0.0
2017-Jul-22 20:28N 60°26' E 022°14'0 0.0
2017-Jul-22 20:00N 60°26' E 022°14'0 0.0
2017-Jul-22 19:30N 60°26' E 022°14'0 0.0
2017-Jul-22 18:59N 60°26' E 022°14'0 0.0
2017-Jul-22 18:29N 60°26' E 022°14'0 0.0
2017-Jul-22 17:59N 60°26' E 022°14'0 0.0
2017-Jul-22 17:29N 60°26' E 022°14'0 0.0
2017-Jul-22 16:59N 60°26' E 022°14'0 0.0
2017-Jul-22 16:29N 60°26' E 022°14'0 0.0
2017-Jul-22 15:59N 60°26' E 022°14'0 0.0
2017-Jul-22 15:29N 60°26' E 022°14'0 0.0
2017-Jul-22 14:59N 60°26' E 022°14'0 0.0
2017-Jul-22 13:59N 60°26' E 022°14'0 0.0
2017-Jul-22 13:29N 60°26' E 022°14'0 0.0
2017-Jul-22 12:59N 60°26' E 022°14'0 0.0
2017-Jul-22 12:29N 60°26' E 022°14'0 0.0
2017-Jul-22 11:59N 60°26' E 022°14'0 0.0
2017-Jul-22 11:29N 60°26' E 022°14'0 0.0
2017-Jul-22 10:59N 60°26' E 022°14'0 0.0
2017-Jul-22 10:29N 60°26' E 022°14'0 0.0
2017-Jul-22 09:59N 60°26' E 022°14'0 0.0
2017-Jul-22 09:29N 60°26' E 022°14'0 0.0
2017-Jul-22 08:59N 60°26' E 022°14'0 0.0
2017-Jul-22 08:29N 60°26' E 022°14'0 0.0
2017-Jul-22 07:59N 60°26' E 022°14'0 0.0
2017-Jul-22 07:29N 60°26' E 022°14'0 0.0
2017-Jul-22 06:59N 60°26' E 022°14'0 0.0
2017-Jul-22 06:29N 60°26' E 022°14'0 0.0
2017-Jul-22 05:59N 60°26' E 022°14'0 0.0
2017-Jul-22 05:29N 60°26' E 022°14'0 0.0
2017-Jul-22 04:56N 60°26' E 022°14'0 0.0
2017-Jul-22 04:29N 60°26' E 022°14'0 0.0
2017-Jul-22 03:59N 60°26' E 022°14'0 0.0
2017-Jul-22 03:29N 60°26' E 022°14'0 0.0
2017-Jul-22 02:59N 60°26' E 022°14'0 0.0
2017-Jul-22 02:29N 60°26' E 022°14'0 0.0
2017-Jul-22 01:59N 60°26' E 022°14'0 0.0
2017-Jul-22 01:29N 60°26' E 022°14'0 0.0
2017-Jul-22 00:59N 60°26' E 022°14'0 0.0
2017-Jul-22 00:29N 60°26' E 022°14'0 0.0
2017-Jul-21 23:59N 60°26' E 022°14'0 0.0
2017-Jul-21 23:29N 60°26' E 022°14'0 0.0
2017-Jul-21 22:59N 60°26' E 022°14'0 0.0
2017-Jul-21 22:29N 60°26' E 022°14'0 0.0
2017-Jul-21 21:59N 60°26' E 022°14'0 0.0
2017-Jul-21 21:29N 60°26' E 022°14'0 0.0
2017-Jul-21 20:59N 60°26' E 022°14'0 0.0
2017-Jul-21 20:29N 60°26' E 022°14'0 0.0
2017-Jul-21 19:56N 60°26' E 022°14'0 0.0
2017-Jul-21 19:29N 60°26' E 022°14'0 0.0
2017-Jul-21 18:59N 60°26' E 022°14'0 0.0
2017-Jul-21 18:29N 60°26' E 022°14'0 0.0
2017-Jul-21 17:56N 60°26' E 022°14'0 0.0
2017-Jul-21 17:29N 60°26' E 022°14'0 0.0
2017-Jul-21 16:59N 60°26' E 022°14'0 0.0
2017-Jul-21 16:29N 60°26' E 022°14'0 0.0
2017-Jul-21 15:59N 60°26' E 022°14'0 0.0
2017-Jul-21 15:29N 60°26' E 022°14'0 0.0
2017-Jul-21 14:59N 60°26' E 022°14'0 0.0
2017-Jul-21 14:29N 60°26' E 022°14'0 0.0
2017-Jul-21 13:59N 60°26' E 022°14'0 0.0
2017-Jul-21 13:29N 60°26' E 022°14'0 0.0
2017-Jul-21 12:59N 60°26' E 022°14'0 0.0
2017-Jul-21 12:29N 60°26' E 022°14'0 0.0
2017-Jul-21 11:59N 60°26' E 022°14'0 0.0
2017-Jul-21 11:29N 60°26' E 022°14'0 0.0
2017-Jul-21 10:59N 60°26' E 022°14'0 0.0
2017-Jul-21 10:29N 60°26' E 022°14'0 0.0
2017-Jul-21 09:59N 60°26' E 022°14'0 0.0
2017-Jul-21 09:29N 60°26' E 022°14'0 0.0
2017-Jul-21 08:59N 60°26' E 022°14'0 0.0
2017-Jul-21 08:29N 60°26' E 022°14'0 0.0
2017-Jul-21 07:59N 60°26' E 022°14'0 0.0
2017-Jul-21 07:29N 60°26' E 022°14'0 0.0
2017-Jul-21 06:59N 60°26' E 022°14'0 0.0
2017-Jul-21 06:29N 60°26' E 022°14'0 0.0
2017-Jul-21 05:59N 60°26' E 022°14'0 0.0
2017-Jul-21 05:29N 60°26' E 022°14'0 0.0
2017-Jul-21 04:59N 60°26' E 022°14'0 0.0
2017-Jul-21 04:29N 60°26' E 022°14'0 0.0
2017-Jul-21 03:59N 60°26' E 022°14'0 0.0
2017-Jul-21 03:29N 60°26' E 022°14'0 0.0
2017-Jul-21 02:59N 60°26' E 022°14'0 0.0
2017-Jul-21 02:29N 60°26' E 022°14'0 0.0
2017-Jul-21 01:59N 60°26' E 022°14'0 0.0
2017-Jul-21 01:29N 60°26' E 022°14'0 0.0
2017-Jul-21 00:59N 60°26' E 022°14'0 0.0
2017-Jul-21 00:29N 60°26' E 022°14'0 0.0
2017-Jul-20 23:59N 60°26' E 022°14'0 0.0
2017-Jul-20 23:29N 60°26' E 022°14'0 0.0
2017-Jul-20 22:59N 60°26' E 022°14'0 0.0
2017-Jul-20 22:29N 60°26' E 022°14'0 0.0
2017-Jul-20 21:59N 60°26' E 022°14'0 0.0
2017-Jul-20 21:29N 60°26' E 022°14'0 0.0
2017-Jul-20 20:59N 60°26' E 022°14'0 0.0
2017-Jul-20 20:23N 60°26' E 022°14'0 0.0
2017-Jul-20 19:55N 60°26' E 022°14'0 0.0
2017-Jul-20 19:29N 60°26' E 022°14'0 0.0
2017-Jul-20 18:59N 60°26' E 022°14'0 0.0
2017-Jul-20 18:29N 60°26' E 022°14'0 0.0
2017-Jul-20 17:59N 60°26' E 022°14'0 0.0
2017-Jul-20 17:29N 60°26' E 022°14'0 0.0
2017-Jul-20 16:59N 60°26' E 022°14'0 0.0
2017-Jul-20 16:29N 60°26' E 022°14'0 0.0
2017-Jul-20 15:59N 60°26' E 022°14'0 0.0
2017-Jul-20 15:29N 60°26' E 022°14'0 0.0
2017-Jul-20 14:59N 60°26' E 022°14'0 0.0
2017-Jul-20 13:56N 60°26' E 022°14'0 0.0
2017-Jul-20 13:29N 60°26' E 022°14'0 0.0
2017-Jul-20 13:00N 60°26' E 022°14'0 0.2
2017-Jul-20 12:30N 60°26' E 022°14'1 1.3
2017-Jul-20 12:00N 60°26' E 022°13'2 3.6
2017-Jul-20 11:30N 60°25' E 022°10'2 4.6
2017-Jul-20 11:00N 60°24' E 022°07'4 8.7
2017-Jul-20 10:31N 60°20' E 022°04'4 7.9
2017-Jul-20 10:01N 60°16' E 021°58'4 8.7
2017-Jul-20 09:30N 60°15' E 021°50'4 8.2
2017-Jul-20 09:00N 60°13' E 021°43'4 7.8
2017-Jul-20 08:30N 60°09' E 021°42'4 7.3
2017-Jul-20 08:00N 60°06' E 021°42'4 8.3
2017-Jul-20 07:30N 60°02' E 021°42'4 8.0
2017-Jul-20 07:00N 59°58' E 021°41'4 8.4
2017-Jul-20 06:30N 59°54' E 021°35'4 8.8
2017-Jul-20 06:00N 59°52' E 021°28'4 8.4
2017-Jul-20 05:29N 59°49' E 021°21'4 7.7
2017-Jul-20 05:00N 59°46' E 021°21'3 6.2
2017-Jul-20 04:30N 59°43' E 021°21'3 5.3
2017-Jul-20 04:00N 59°40' E 021°20'2 4.9
2017-Jul-20 03:30N 59°38' E 021°19'3 5.1
2017-Jul-20 03:00N 59°35' E 021°18'2 4.3
2017-Jul-20 02:30N 59°33' E 021°16'2 4.7
2017-Jul-20 02:01N 59°31' E 021°15'0 0.9
2017-Jul-20 01:30N 59°31' E 021°14'0 0.9
2017-Jul-20 01:00N 59°31' E 021°13'0 0.9
2017-Jul-20 00:30N 59°31' E 021°12'0 0.8
2017-Jul-20 00:00N 59°30' E 021°12'0 0.9
2017-Jul-19 23:30N 59°30' E 021°11'0 0.8
2017-Jul-19 23:00N 59°30' E 021°10'0 0.8
2017-Jul-19 22:30N 59°30' E 021°09'0 0.7
2017-Jul-19 22:00N 59°30' E 021°09'0 0.7
2017-Jul-19 21:30N 59°30' E 021°08'0 0.6
2017-Jul-19 21:00N 59°30' E 021°07'0 0.4
2017-Jul-19 20:30N 59°30' E 021°07'0 0.4
2017-Jul-19 20:01N 59°30' E 021°07'0 0.4
2017-Jul-19 19:30N 59°31' E 021°06'0 0.4
2017-Jul-19 19:00N 59°31' E 021°06'0 0.4
2017-Jul-19 18:30N 59°31' E 021°06'0 0.6
2017-Jul-19 18:00N 59°31' E 021°05'0 0.6
2017-Jul-19 17:30N 59°31' E 021°05'0 0.6
2017-Jul-19 17:00N 59°31' E 021°05'2 3.1
2017-Jul-19 16:30N 59°30' E 021°04'4 7.4
2017-Jul-19 16:00N 59°27' E 021°09'4 8.1
2017-Jul-19 15:30N 59°26' E 021°17'4 8.0
2017-Jul-19 15:00N 59°25' E 021°25'4 7.8
2017-Jul-19 14:30N 59°25' E 021°32'4 7.8
2017-Jul-19 14:00N 59°25' E 021°40'4 7.7
2017-Jul-19 13:30N 59°26' E 021°47'4 7.5
2017-Jul-19 12:59N 59°27' E 021°55'3 7.0
2017-Jul-19 12:30N 59°28' E 022°01'4 7.7
2017-Jul-19 12:00N 59°28' E 022°09'4 7.4
2017-Jul-19 11:29N 59°29' E 022°16'4 7.3
2017-Jul-19 11:00N 59°31' E 022°23'4 7.2
2017-Jul-19 10:31N 59°32' E 022°29'3 6.7
2017-Jul-19 10:00N 59°33' E 022°35'3 6.4
2017-Jul-19 09:30N 59°34' E 022°42'3 6.2
2017-Jul-19 09:00N 59°35' E 022°47'3 6.3
2017-Jul-19 08:30N 59°35' E 022°53'3 6.3
2017-Jul-19 08:00N 59°36' E 022°59'3 6.6
2017-Jul-19 07:30N 59°37' E 023°06'3 6.6
2017-Jul-19 07:00N 59°38' E 023°12'3 6.7
2017-Jul-19 06:30N 59°39' E 023°18'3 6.9
2017-Jul-19 06:01N 59°39' E 023°25'4 7.2
2017-Jul-19 05:30N 59°41' E 023°32'4 7.3
2017-Jul-19 05:00N 59°42' E 023°39'4 7.3
2017-Jul-19 04:30N 59°43' E 023°46'4 7.3
2017-Jul-19 04:00N 59°43' E 023°53'3 7.0
2017-Jul-19 03:30N 59°44' E 023°59'4 7.2
2017-Jul-19 03:00N 59°45' E 024°06'4 7.5
2017-Jul-19 02:30N 59°46' E 024°14'4 7.4
2017-Jul-19 02:01N 59°47' E 024°21'4 7.3
2017-Jul-19 01:30N 59°47' E 024°28'3 6.8
2017-Jul-19 01:00N 59°48' E 024°35'3 6.9
2017-Jul-19 00:30N 59°49' E 024°41'4 7.4
2017-Jul-19 00:00N 59°49' E 024°48'4 7.3
2017-Jul-18 23:29N 59°50' E 024°56'4 7.4
2017-Jul-18 23:00N 59°51' E 025°03'4 7.3
2017-Jul-18 22:30N 59°52' E 025°10'3 7.2
2017-Jul-18 22:00N 59°52' E 025°17'4 7.2
2017-Jul-18 21:30N 59°53' E 025°24'3 6.8
2017-Jul-18 21:00N 59°53' E 025°31'3 6.8
2017-Jul-18 20:30N 59°53' E 025°38'3 6.1
2017-Jul-18 20:00N 59°54' E 025°44'3 6.6
2017-Jul-18 19:30N 59°55' E 025°50'3 5.5
2017-Jul-18 19:00N 59°56' E 025°55'3 5.7
2017-Jul-18 18:30N 59°57' E 026°01'3 5.8
2017-Jul-18 18:00N 59°57' E 026°06'3 6.1
2017-Jul-18 17:30N 59°58' E 026°12'3 6.6
2017-Jul-18 17:00N 59°59' E 026°18'3 6.7
2017-Jul-18 16:31N 60°00' E 026°25'4 7.2
2017-Jul-18 16:00N 60°01' E 026°32'3 6.5
2017-Jul-18 15:31N 60°01' E 026°38'4 7.1
2017-Jul-18 15:00N 60°01' E 026°45'8 7.7
2017-Jul-18 13:59N 60°00' E 027°01'3 6.9
2017-Jul-18 13:31N 60°01' E 027°07'4 7.1
2017-Jul-18 13:01N 60°03' E 027°13'4 7.2
2017-Jul-18 12:31N 60°04' E 027°20'4 7.4
2017-Jul-18 11:59N 60°06' E 027°26'4 7.4
2017-Jul-18 11:31N 60°08' E 027°32'3 6.7
2017-Jul-18 11:00N 60°10' E 027°38'2 5.0
2017-Jul-18 10:30N 60°11' E 027°43'2 4.7
2017-Jul-18 10:01N 60°12' E 027°47'2 4.9
2017-Jul-18 09:30N 60°11' E 027°52'2 4.9
2017-Jul-18 09:01N 60°11' E 027°57'3 5.0
2017-Jul-18 08:30N 60°10' E 028°02'2 4.7
2017-Jul-18 08:00N 60°09' E 028°06'2 4.9
2017-Jul-18 07:30N 60°09' E 028°11'3 5.7
2017-Jul-18 07:01N 60°08' E 028°17'3 6.1
2017-Jul-18 06:30N 60°06' E 028°22'3 6.1
2017-Jul-18 06:00N 60°04' E 028°26'3 5.6
2017-Jul-18 05:30N 60°04' E 028°32'3 5.3
2017-Jul-18 05:00N 60°03' E 028°37'3 5.0
2017-Jul-18 04:30N 60°03' E 028°42'2 5.0
2017-Jul-18 04:00N 60°03' E 028°47'2 4.8
2017-Jul-18 03:30N 60°03' E 028°52'2 4.7
2017-Jul-18 03:00N 60°03' E 028°56'2 4.6
2017-Jul-18 02:30N 60°03' E 029°01'2 4.3
2017-Jul-18 02:00N 60°03' E 029°05'2 3.9
2017-Jul-18 01:30N 60°03' E 029°09'10 3.5
2017-Jul-17 22:32N 60°01' E 029°30'0 4.9
2017-Jul-17 22:27N 60°01' E 029°31'2 5.5
2017-Jul-17 22:00N 60°01' E 029°35'3 5.9
2017-Jul-17 21:30N 59°60' E 029°41'3 5.8
2017-Jul-17 20:54N 59°58' E 029°47'2 6.0
2017-Jul-17 20:30N 59°57' E 029°51'10 2.0
2017-Jul-17 15:26N 59°57' E 030°11'4013.0
2017-Jul-17 12:20N 59°49' E 028°53'4087.1
2017-Jul-17 11:52N 59°57' E 030°11'0 0.0
2017-Jul-17 11:30N 59°57' E 030°11'0 0.3
2017-Jul-17 11:00N 59°57' E 030°12'0 0.4
2017-Jul-17 10:30N 59°57' E 030°11'0 0.2
2017-Jul-17 09:59N 59°57' E 030°11'0 0.0
2017-Jul-17 09:28N 59°57' E 030°11'0 0.0
2017-Jul-17 08:55N 59°57' E 030°11'0 0.0
2017-Jul-17 08:29N 59°57' E 030°11'0 0.0
2017-Jul-17 07:59N 59°57' E 030°11'0 0.0
2017-Jul-17 07:28N 59°57' E 030°11'0 0.0
2017-Jul-17 06:59N 59°57' E 030°11'0 0.0
2017-Jul-17 06:30N 59°57' E 030°11'0 0.3
2017-Jul-17 05:59N 59°57' E 030°11'5 6.3
2017-Jul-17 05:11N 59°56' E 030°02'1 3.7
2017-Jul-17 05:00N 59°55' E 030°00'3 6.7
2017-Jul-17 04:30N 59°56' E 029°54'3 6.6
2017-Jul-17 03:59N 59°58' E 029°48'4 6.2
2017-Jul-17 03:22N 59°60' E 029°41'6 6.5
2017-Jul-17 02:28N 60°01' E 029°30'3 6.0
2017-Jul-17 01:59N 60°01' E 029°24'3 5.5
2017-Jul-17 01:30N 60°01' E 029°19'0 0.2
2017-Jul-17 00:38N 60°01' E 029°19'0 0.0
2017-Jul-17 00:08N 60°01' E 029°19'0 0.0
2017-Jul-16 23:20N 60°01' E 029°19'0 0.0
2017-Jul-16 22:56N 60°01' E 029°19'0 0.0
2017-Jul-16 22:29N 60°01' E 029°19'0 0.0
2017-Jul-16 21:59N 60°01' E 029°19'0 0.0
2017-Jul-16 21:29N 60°01' E 029°19'0 0.1
2017-Jul-16 21:00N 60°01' E 029°19'1 2.5
2017-Jul-16 20:30N 60°01' E 029°16'3 5.9
2017-Jul-16 19:59N 60°01' E 029°10'3 6.0
2017-Jul-16 19:29N 60°01' E 029°05'3 6.3
2017-Jul-16 19:00N 60°02' E 028°58'3 6.6
2017-Jul-16 18:31N 60°02' E 028°52'3 6.7
2017-Jul-16 18:00N 60°02' E 028°45'4 6.8
2017-Jul-16 17:29N 60°02' E 028°38'3 6.8
2017-Jul-16 17:00N 60°02' E 028°32'3 6.8
2017-Jul-16 16:30N 60°03' E 028°25'4 7.3
2017-Jul-16 15:59N 60°05' E 028°19'3 6.9
2017-Jul-16 15:30N 60°07' E 028°14'3 6.7
2017-Jul-16 15:00N 60°08' E 028°07'3 6.5
2017-Jul-16 14:30N 60°09' E 028°01'4 7.5
2017-Jul-16 14:00N 60°10' E 027°54'3 6.4
2017-Jul-16 13:30N 60°10' E 027°47'3 6.1
2017-Jul-16 13:00N 60°10' E 027°41'3 6.4
2017-Jul-16 12:30N 60°08' E 027°36'4 7.0
2017-Jul-16 12:00N 60°06' E 027°30'2 4.6
2017-Jul-16 11:30N 60°08' E 027°26'3 6.7
2017-Jul-16 11:01N 60°10' E 027°22'3 6.2
2017-Jul-16 10:30N 60°13' E 027°19'3 5.4
2017-Jul-16 10:00N 60°15' E 027°16'3 6.2
2017-Jul-16 09:30N 60°18' E 027°12'3 6.1
2017-Jul-16 09:01N 60°20' E 027°08'3 6.2
2017-Jul-16 08:30N 60°21' E 027°02'3 6.6
2017-Jul-16 08:01N 60°24' E 026°59'3 5.2
2017-Jul-16 07:30N 60°27' E 026°58'2 3.6
2017-Jul-16 06:59N 60°28' E 026°57'0 0.0
2017-Jul-16 06:29N 60°28' E 026°57'0 0.0
2017-Jul-16 05:59N 60°28' E 026°57'0 0.0
2017-Jul-16 05:29N 60°28' E 026°57'0 0.0
2017-Jul-16 04:59N 60°28' E 026°57'0 0.0
2017-Jul-16 04:29N 60°28' E 026°57'0 0.0
2017-Jul-16 03:59N 60°28' E 026°57'0 0.0
2017-Jul-16 03:29N 60°28' E 026°57'0 0.0
2017-Jul-16 03:00N 60°28' E 026°57'0 0.0
2017-Jul-16 02:29N 60°28' E 026°57'0 0.0
2017-Jul-16 01:59N 60°28' E 026°57'0 0.0
2017-Jul-16 01:29N 60°28' E 026°57'0 0.0
2017-Jul-16 00:59N 60°28' E 026°57'0 0.0
2017-Jul-16 00:30N 60°28' E 026°57'0 0.0
2017-Jul-16 00:00N 60°28' E 026°57'0 0.0
2017-Jul-15 23:30N 60°28' E 026°57'0 0.0
2017-Jul-15 23:00N 60°28' E 026°57'0 0.0
2017-Jul-15 22:29N 60°28' E 026°57'0 0.0
2017-Jul-15 21:59N 60°28' E 026°57'0 0.0
2017-Jul-15 21:30N 60°28' E 026°57'0 0.0
2017-Jul-15 20:59N 60°28' E 026°57'0 0.0
2017-Jul-15 20:29N 60°28' E 026°57'0 0.0
2017-Jul-15 19:59N 60°28' E 026°57'0 0.0
2017-Jul-15 19:30N 60°28' E 026°57'0 0.0
2017-Jul-15 19:00N 60°28' E 026°57'0 0.0
2017-Jul-15 18:29N 60°28' E 026°57'0 0.0
2017-Jul-15 17:59N 60°28' E 026°57'0 0.0
2017-Jul-15 17:29N 60°28' E 026°57'0 0.0
2017-Jul-15 16:59N 60°28' E 026°57'0 0.0
2017-Jul-15 16:29N 60°28' E 026°57'0 0.0
2017-Jul-15 15:59N 60°28' E 026°57'0 0.0
2017-Jul-15 15:29N 60°28' E 026°57'0 0.0
2017-Jul-15 14:59N 60°28' E 026°57'0 0.0
2017-Jul-15 13:59N 60°28' E 026°57'0 0.0
2017-Jul-15 13:29N 60°28' E 026°57'0 0.0
2017-Jul-15 12:59N 60°28' E 026°57'0 0.0
2017-Jul-15 12:29N 60°28' E 026°57'0 0.0
2017-Jul-15 11:59N 60°28' E 026°57'0 0.0
2017-Jul-15 11:29N 60°28' E 026°57'0 0.0
2017-Jul-15 10:59N 60°28' E 026°57'0 0.0
2017-Jul-15 10:29N 60°28' E 026°57'0 0.0
2017-Jul-15 09:59N 60°28' E 026°57'0 0.0
2017-Jul-15 09:29N 60°28' E 026°57'0 0.0
2017-Jul-15 08:59N 60°28' E 026°57'0 0.0
2017-Jul-15 08:29N 60°28' E 026°57'0 0.0
2017-Jul-15 07:59N 60°28' E 026°57'0 0.0
2017-Jul-15 07:29N 60°28' E 026°57'  

Dump ship's entire track history